createdAt,value
2022-10-30T00:01:04.113Z,95148.75
2022-10-30T00:03:30.916Z,95146.94
2022-10-30T00:05:57.620Z,95139.50
2022-10-30T00:08:27.687Z,95144.16
2022-10-30T00:10:54.778Z,95135.16
2022-10-30T00:13:22.166Z,95143.44
2022-10-30T00:15:53.929Z,95146.78
2022-10-30T00:18:21.200Z,95141.69
2022-10-30T00:20:49.422Z,95142.19
2022-10-30T00:23:21.277Z,95143.97
2022-10-30T00:25:48.080Z,95138.53
2022-10-30T00:28:14.893Z,95141.56
2022-10-30T00:30:41.788Z,95130.03
2022-10-30T00:33:08.525Z,95131.34
2022-10-30T00:35:35.329Z,95135.94
2022-10-30T00:38:02.438Z,95135.06
2022-10-30T00:40:29.274Z,95123.56
2022-10-30T00:42:56.091Z,95143.00
2022-10-30T00:45:22.844Z,95140.25
2022-10-30T00:48:03.239Z,95134.75
2022-10-30T00:50:34.939Z,95131.63
2022-10-30T00:53:12.433Z,95134.75
2022-10-30T00:55:57.587Z,95121.25
2022-10-30T00:58:34.391Z,95110.66
2022-10-30T01:01:06.072Z,95120.53
2022-10-30T01:03:36.591Z,95117.72
2022-10-30T01:06:07.044Z,95116.38
2022-10-30T01:08:34.420Z,95114.44
2022-10-30T01:11:03.429Z,95107.03
2022-10-30T01:13:32.365Z,95110.94
2022-10-30T01:16:33.584Z,95111.53
2022-10-30T01:19:34.511Z,95104.03
2022-10-30T01:22:21.388Z,95103.88
2022-10-30T01:25:05.678Z,95106.34
2022-10-30T01:28:03.525Z,95101.03
2022-10-30T01:30:48.812Z,95096.88
2022-10-30T01:33:38.356Z,95098.56
2022-10-30T01:36:13.932Z,95107.19
2022-10-30T01:38:52.175Z,95093.38
2022-10-30T01:41:18.965Z,95100.91
2022-10-30T01:43:49.060Z,95103.75
2022-10-30T01:46:37.379Z,95106.38
2022-10-30T01:49:30.901Z,95098.81
2022-10-30T01:52:17.663Z,95094.75
2022-10-30T01:54:59.848Z,95097.56
2022-10-30T01:58:05.533Z,95081.81
2022-10-30T02:00:32.514Z,95093.06
2022-10-30T02:02:59.566Z,95083.97
2022-10-30T02:05:48.451Z,95093.34
2022-10-30T02:08:15.295Z,95090.63
2022-10-30T02:10:46.064Z,95085.53
2022-10-30T02:13:13.198Z,95088.47
2022-10-30T02:15:41.165Z,95090.56
2022-10-30T02:18:08.018Z,95084.72
2022-10-30T02:20:35.124Z,95092.31
2022-10-30T02:23:02.428Z,95093.19
2022-10-30T02:25:29.557Z,95086.59
2022-10-30T02:27:56.299Z,95079.75
2022-10-30T02:30:23.043Z,95094.09
2022-10-30T02:32:49.760Z,95096.84
2022-10-30T02:35:16.550Z,95084.31
2022-10-30T02:37:43.330Z,95068.41
2022-10-30T02:40:10.903Z,95083.66
2022-10-30T02:42:37.661Z,95071.34
2022-10-30T02:45:04.880Z,95074.88
2022-10-30T02:47:31.610Z,95083.03
2022-10-30T02:49:59.038Z,95072.72
2022-10-30T02:52:25.726Z,95070.09
2022-10-30T02:54:52.456Z,95076.97
2022-10-30T02:57:19.140Z,95077.38
2022-10-30T02:59:45.823Z,95076.59
2022-10-30T03:02:12.688Z,95073.00
2022-10-30T03:04:39.452Z,95081.91
2022-10-30T03:07:06.210Z,95081.38
2022-10-30T03:09:32.915Z,95072.81
2022-10-30T03:11:59.613Z,95073.88
2022-10-30T03:14:29.215Z,95078.66
2022-10-30T03:16:55.920Z,95070.94
2022-10-30T03:19:22.751Z,95073.00
2022-10-30T03:21:49.558Z,95069.75
2022-10-30T03:24:16.463Z,95083.28
2022-10-30T03:26:43.276Z,95071.56
2022-10-30T03:29:10.728Z,95062.44
2022-10-30T03:31:37.543Z,95071.66
2022-10-30T03:34:04.264Z,95073.75
2022-10-30T03:36:31.021Z,95073.50
2022-10-30T03:38:57.755Z,95077.94
2022-10-30T03:41:24.556Z,95089.63
2022-10-30T03:43:51.765Z,95085.78
2022-10-30T03:46:18.539Z,95079.59
2022-10-30T03:48:49.768Z,95088.97
2022-10-30T03:51:17.340Z,95090.00
2022-10-30T03:53:44.080Z,95091.97
2022-10-30T03:56:10.919Z,95087.97
2022-10-30T03:58:37.647Z,95080.81
2022-10-30T04:01:06.891Z,95093.13
2022-10-30T04:03:34.215Z,95082.09
2022-10-30T04:06:00.981Z,95081.41
2022-10-30T04:08:27.917Z,95084.84
2022-10-30T04:10:54.801Z,95082.41
2022-10-30T04:13:21.602Z,95076.31
2022-10-30T04:15:56.368Z,95081.97
2022-10-30T04:18:25.705Z,95079.91
2022-10-30T04:20:52.508Z,95067.41
2022-10-30T04:23:21.399Z,95075.81
2022-10-30T04:25:50.153Z,95074.03
2022-10-30T04:28:17.430Z,95077.34
2022-10-30T04:30:47.030Z,95074.28
2022-10-30T04:33:14.739Z,95075.81
2022-10-30T04:35:42.896Z,95078.28
2022-10-30T04:38:15.183Z,95081.78
2022-10-30T04:40:43.663Z,95088.69
2022-10-30T04:43:11.768Z,95074.66
2022-10-30T04:45:41.874Z,95081.09
2022-10-30T04:48:12.174Z,95085.75
2022-10-30T04:50:39.138Z,95068.41
2022-10-30T04:53:14.004Z,95073.91
2022-10-30T04:55:42.803Z,95085.44
2022-10-30T04:58:10.254Z,95075.13
2022-10-30T05:00:37.267Z,95072.63
2022-10-30T05:03:04.333Z,95085.25
2022-10-30T05:05:32.097Z,95076.69
2022-10-30T05:08:00.424Z,95082.75
2022-10-30T05:10:27.651Z,95070.22
2022-10-30T05:12:54.575Z,95084.03
2022-10-30T05:15:21.702Z,95081.47
2022-10-30T05:17:53.308Z,95078.16
2022-10-30T05:20:21.200Z,95082.41
2022-10-30T05:22:58.597Z,95081.97
2022-10-30T05:25:26.926Z,95066.25
2022-10-30T05:28:05.162Z,95072.34
2022-10-30T05:30:34.823Z,95073.41
2022-10-30T05:33:05.925Z,95086.13
2022-10-30T05:35:33.930Z,95079.66
2022-10-30T05:38:02.451Z,95087.94
2022-10-30T05:40:29.459Z,95080.91
2022-10-30T05:42:56.562Z,95067.94
2022-10-30T05:45:23.775Z,95082.81
2022-10-30T05:48:03.518Z,95085.00
2022-10-30T05:50:36.492Z,95075.66
2022-10-30T05:53:05.363Z,95087.38
2022-10-30T05:55:32.846Z,95073.72
2022-10-30T05:58:05.412Z,95076.22
2022-10-30T06:00:36.084Z,95075.94
2022-10-30T06:03:06.334Z,95076.50
2022-10-30T06:05:36.116Z,95079.53
2022-10-30T06:08:04.978Z,95076.63
2022-10-30T06:10:32.206Z,95071.00
2022-10-30T06:13:02.398Z,95082.28
2022-10-30T06:15:30.781Z,95075.38
2022-10-30T06:17:58.547Z,95069.47
2022-10-30T06:20:30.018Z,95088.06
2022-10-30T06:23:01.558Z,95082.56
2022-10-30T06:25:31.665Z,95072.94
2022-10-30T06:27:59.463Z,95081.84
2022-10-30T06:30:27.879Z,95077.59
2022-10-30T06:33:03.155Z,95080.91
2022-10-30T06:35:30.763Z,95076.09
2022-10-30T06:38:00.369Z,95085.84
2022-10-30T06:40:30.135Z,95082.84
2022-10-30T06:42:57.826Z,95084.34
2022-10-30T06:45:27.670Z,95078.28
2022-10-30T06:47:54.565Z,95078.97
2022-10-30T06:50:22.220Z,95087.50
2022-10-30T06:52:50.419Z,95080.91
2022-10-30T06:55:18.003Z,95084.22
2022-10-30T06:57:58.363Z,95080.22
2022-10-30T07:00:25.443Z,95076.75
2022-10-30T07:03:06.719Z,95068.63
2022-10-30T07:05:33.534Z,95080.34
2022-10-30T07:08:00.261Z,95067.38
2022-10-30T07:10:27.018Z,95069.53
2022-10-30T07:12:55.874Z,95076.44
2022-10-30T07:15:23.431Z,95069.94
2022-10-30T07:18:03.135Z,95075.28
2022-10-30T07:20:34.287Z,95076.47
2022-10-30T07:23:01.822Z,95073.56
2022-10-30T07:25:29.316Z,95075.91
2022-10-30T07:27:57.696Z,95076.41
2022-10-30T07:33:13.909Z,95068.16
2022-10-30T07:35:40.674Z,95070.56
2022-10-30T07:38:12.792Z,95073.00
2022-10-30T07:40:40.749Z,95056.13
2022-10-30T07:43:13.301Z,95072.56
2022-10-30T07:45:40.275Z,95071.97
2022-10-30T07:48:06.979Z,95067.69
2022-10-30T07:50:34.718Z,95063.31
2022-10-30T07:53:01.435Z,95082.22
2022-10-30T07:55:28.175Z,95076.19
2022-10-30T07:57:57.335Z,95065.31
2022-10-30T08:00:24.505Z,95070.66
2022-10-30T08:02:57.751Z,95076.81
2022-10-30T08:05:28.829Z,95072.50
2022-10-30T08:07:58.383Z,95077.84
2022-10-30T08:10:25.492Z,95068.88
2022-10-30T08:12:52.312Z,95082.25
2022-10-30T08:15:19.450Z,95079.66
2022-10-30T08:17:48.822Z,95078.84
2022-10-30T08:20:18.969Z,95077.75
2022-10-30T08:22:53.154Z,95079.06
2022-10-30T08:25:22.346Z,95072.81
2022-10-30T08:27:59.072Z,95079.09
2022-10-30T08:30:32.408Z,95063.56
2022-10-30T08:33:02.051Z,95072.94
2022-10-30T08:35:30.274Z,95074.38
2022-10-30T08:38:03.020Z,95066.59
2022-10-30T08:40:29.937Z,95063.72
2022-10-30T08:42:58.281Z,95066.16
2022-10-30T08:45:29.937Z,95056.88
2022-10-30T08:48:03.394Z,95069.63
2022-10-30T08:50:31.681Z,95059.94
2022-10-30T08:53:07.157Z,95060.38
2022-10-30T08:55:35.206Z,95064.88
2022-10-30T08:58:02.267Z,95064.09
2022-10-30T09:00:29.909Z,95068.78
2022-10-30T09:02:57.189Z,95062.50
2022-10-30T09:05:24.223Z,95059.63
2022-10-30T09:07:57.631Z,95049.06
2022-10-30T09:10:24.740Z,95047.94
2022-10-30T09:12:58.534Z,95051.75
2022-10-30T09:15:26.713Z,95039.69
2022-10-30T09:18:03.002Z,95048.31
2022-10-30T09:20:30.972Z,95049.31
2022-10-30T09:22:58.230Z,95037.97
2022-10-30T09:25:25.474Z,95039.16
2022-10-30T09:27:52.181Z,95035.97
2022-10-30T09:30:19.014Z,95032.59
2022-10-30T09:32:46.686Z,95037.84
2022-10-30T09:35:15.770Z,95028.94
2022-10-30T09:37:42.544Z,95041.38
2022-10-30T09:40:18.164Z,95042.66
2022-10-30T09:42:48.836Z,95033.47
2022-10-30T09:45:52.937Z,95043.75
2022-10-30T09:48:43.955Z,95046.91
2022-10-30T09:51:19.664Z,95045.75
2022-10-30T09:54:25.243Z,95033.56
2022-10-30T09:57:19.467Z,95054.94
2022-10-30T10:00:11.243Z,95051.13
2022-10-30T10:03:21.864Z,95055.47
2022-10-30T10:06:18.847Z,95055.94
2022-10-30T10:08:55.184Z,95046.91
2022-10-30T10:11:32.755Z,95050.34
2022-10-30T10:14:14.451Z,95045.38
2022-10-30T10:16:44.106Z,95056.63
2022-10-30T10:19:23.520Z,95056.31
2022-10-30T10:21:57.948Z,95057.25
2022-10-30T10:24:38.338Z,95042.41
2022-10-30T10:27:31.812Z,95044.53
2022-10-30T10:30:05.827Z,95046.19
2022-10-30T10:33:33.089Z,95047.09
2022-10-30T10:36:44.329Z,95035.78
2022-10-30T10:40:00.822Z,95043.84
2022-10-30T10:43:14.851Z,95045.78
2022-10-30T10:45:41.515Z,95040.06
2022-10-30T10:48:33.996Z,95033.53
2022-10-30T10:51:21.362Z,95026.53
2022-10-30T10:54:35.301Z,95027.00
2022-10-30T10:57:05.371Z,95026.72
2022-10-30T10:59:42.565Z,95030.19
2022-10-30T11:02:09.426Z,95026.19
2022-10-30T11:04:48.167Z,95022.94
2022-10-30T11:07:24.543Z,95020.28
2022-10-30T11:09:56.168Z,95029.78
2022-10-30T11:12:35.273Z,95022.06
2022-10-30T11:15:21.899Z,95027.56
2022-10-30T11:18:09.946Z,95007.63
2022-10-30T11:20:38.691Z,95019.22
2022-10-30T11:23:32.296Z,95019.91
2022-10-30T11:25:59.640Z,95010.13
2022-10-30T11:28:53.231Z,95010.28
2022-10-30T11:31:35.041Z,95012.22
2022-10-30T11:34:19.977Z,95006.97
2022-10-30T11:36:49.231Z,94989.56
2022-10-30T11:39:23.221Z,94995.59
2022-10-30T11:42:17.796Z,95011.91
2022-10-30T11:44:49.639Z,95006.13
2022-10-30T11:47:23.096Z,95008.16
2022-10-30T11:49:55.058Z,95000.59
2022-10-30T11:52:24.664Z,95001.16
2022-10-30T11:55:00.260Z,94996.59
2022-10-30T11:57:34.703Z,94995.94
2022-10-30T12:00:15.855Z,94991.50
2022-10-30T12:02:47.146Z,94988.69
2022-10-30T12:05:45.055Z,94991.25
2022-10-30T12:08:18.817Z,94986.00
2022-10-30T12:11:00.659Z,94982.53
2022-10-30T12:13:33.834Z,94975.44
2022-10-30T12:16:16.133Z,94973.75
2022-10-30T12:19:02.253Z,94971.72
2022-10-30T12:21:38.183Z,94966.88
2022-10-30T12:24:09.513Z,94962.09
2022-10-30T12:26:38.231Z,94967.03
2022-10-30T12:29:14.693Z,94969.38
2022-10-30T12:32:07.937Z,94966.16
2022-10-30T12:34:56.064Z,94953.50
2022-10-30T12:37:33.468Z,94956.53
2022-10-30T12:40:16.299Z,94956.75
2022-10-30T12:42:58.853Z,94956.25
2022-10-30T12:45:35.929Z,94952.75
2022-10-30T12:48:12.345Z,94961.63
2022-10-30T12:51:31.755Z,94961.56
2022-10-30T12:54:07.401Z,94960.34
2022-10-30T12:56:39.821Z,94953.09
2022-10-30T12:59:43.761Z,94953.38
2022-10-30T13:02:13.336Z,94962.03
2022-10-30T13:04:45.479Z,94955.28
2022-10-30T13:07:36.198Z,94938.50
2022-10-30T13:10:31.143Z,94953.69
2022-10-30T13:13:16.833Z,94948.81
2022-10-30T13:15:56.075Z,94953.19
2022-10-30T13:18:26.982Z,94948.31
2022-10-30T13:21:36.607Z,94951.56
2022-10-30T13:24:27.388Z,94948.81
2022-10-30T13:27:20.810Z,94951.47
2022-10-30T13:30:01.606Z,94945.47
2022-10-30T13:32:34.355Z,94948.16
2022-10-30T13:35:20.251Z,94950.28
2022-10-30T13:38:10.921Z,94945.31
2022-10-30T13:40:43.816Z,94948.78
2022-10-30T13:43:25.038Z,94944.19
2022-10-30T13:46:25.631Z,94941.84
2022-10-30T13:49:19.700Z,94938.28
2022-10-30T13:51:56.977Z,94936.13
2022-10-30T13:54:31.683Z,94942.59
2022-10-30T13:57:17.488Z,94932.31
2022-10-30T14:00:16.053Z,94938.00
2022-10-30T14:03:04.426Z,94946.63
2022-10-30T14:05:58.514Z,94945.16
2022-10-30T14:08:40.272Z,94943.53
2022-10-30T14:11:12.238Z,94948.06
2022-10-30T14:14:13.465Z,94948.75
2022-10-30T14:17:12.846Z,94945.97
2022-10-30T14:20:13.689Z,94949.09
2022-10-30T14:22:42.307Z,94947.19
2022-10-30T14:25:15.935Z,94952.31
2022-10-30T14:27:43.009Z,94942.00
2022-10-30T14:30:20.158Z,94949.56
2022-10-30T14:32:53.325Z,94939.72
2022-10-30T14:35:38.726Z,94950.25
2022-10-30T14:38:08.107Z,94943.75
2022-10-30T14:40:46.357Z,94940.63
2022-10-30T14:43:27.751Z,94948.66
2022-10-30T14:46:02.024Z,94940.75
2022-10-30T14:48:38.798Z,94948.69
2022-10-30T14:51:29.155Z,94956.25
2022-10-30T14:54:15.670Z,94953.44
2022-10-30T14:56:52.149Z,94947.25
2022-10-30T14:59:22.732Z,94949.97
2022-10-30T15:02:17.337Z,94948.31
2022-10-30T15:05:17.537Z,94953.41
2022-10-30T15:07:55.114Z,94959.59
2022-10-30T15:10:36.716Z,94959.69
2022-10-30T15:13:23.169Z,94936.63
2022-10-30T15:16:05.954Z,94960.19
2022-10-30T15:18:33.051Z,94964.22
2022-10-30T15:21:06.811Z,94947.00
2022-10-30T15:23:36.744Z,94957.53
2022-10-30T15:26:09.860Z,94966.88
2022-10-30T15:28:39.193Z,94957.41
2022-10-30T15:31:24.330Z,94961.34
2022-10-30T15:33:54.318Z,94970.88
2022-10-30T15:36:24.886Z,94969.44
2022-10-30T15:39:18.554Z,94969.47
2022-10-30T15:41:49.894Z,94961.56
2022-10-30T15:44:23.723Z,94965.56
2022-10-30T15:46:54.887Z,94972.72
2022-10-30T15:49:31.289Z,94974.34
2022-10-30T15:52:01.488Z,94972.25
2022-10-30T15:54:29.838Z,94972.81
2022-10-30T15:57:31.792Z,94973.19
2022-10-30T15:59:59.354Z,94978.97
2022-10-30T16:02:27.084Z,94976.84
2022-10-30T16:04:54.295Z,94971.47
2022-10-30T16:10:02.943Z,94984.34
2022-10-30T16:12:34.686Z,94977.47
2022-10-30T16:15:08.219Z,94978.34
2022-10-30T16:17:35.135Z,94987.00
2022-10-30T16:20:03.514Z,94994.00
2022-10-30T16:22:36.760Z,94979.72
2022-10-30T16:25:07.965Z,94983.44
2022-10-30T16:27:43.399Z,94992.47
2022-10-30T16:30:14.510Z,94993.28
2022-10-30T16:32:41.739Z,94999.00
2022-10-30T16:35:11.642Z,95003.28
2022-10-30T16:37:40.831Z,95002.66
2022-10-30T16:40:19.593Z,95004.69
2022-10-30T16:43:01.134Z,95002.22
2022-10-30T16:45:34.214Z,95005.63
2022-10-30T16:48:09.067Z,95008.03
2022-10-30T16:50:38.541Z,95012.38
2022-10-30T16:53:08.260Z,95004.38
2022-10-30T16:55:38.675Z,95011.13
2022-10-30T16:58:05.663Z,95006.75
2022-10-30T17:00:36.392Z,95008.06
2022-10-30T17:03:11.036Z,95002.84
2022-10-30T17:05:38.926Z,95012.22
2022-10-30T17:08:27.767Z,95016.22
2022-10-30T17:11:02.832Z,95014.31
2022-10-30T17:13:46.116Z,95020.31
2022-10-30T17:16:27.398Z,95017.13
2022-10-30T17:19:16.660Z,95018.25
2022-10-30T17:21:43.469Z,95025.53
2022-10-30T17:24:21.645Z,95031.94
2022-10-30T17:27:00.542Z,95038.94
2022-10-30T17:29:45.703Z,95027.25
2022-10-30T17:32:22.193Z,95041.47
2022-10-30T17:35:13.477Z,95047.50
2022-10-30T17:37:40.406Z,95048.25
2022-10-30T17:40:07.727Z,95053.81
2022-10-30T17:42:34.565Z,95051.81
2022-10-30T17:45:01.639Z,95053.19
2022-10-30T17:47:28.815Z,95052.06
2022-10-30T17:49:55.540Z,95052.31
2022-10-30T17:52:22.278Z,95055.44
2022-10-30T17:54:49.398Z,95055.31
2022-10-30T17:57:17.012Z,95056.31
2022-10-30T17:59:44.103Z,95060.56
2022-10-30T18:02:17.321Z,95068.34
2022-10-30T18:04:45.448Z,95067.72
2022-10-30T18:07:13.577Z,95072.16
2022-10-30T18:09:40.696Z,95060.38
2022-10-30T18:12:13.910Z,95068.31
2022-10-30T18:14:40.711Z,95071.50
2022-10-30T18:17:07.621Z,95067.06
2022-10-30T18:19:34.443Z,95071.41
2022-10-30T18:22:01.757Z,95077.69
2022-10-30T18:24:28.536Z,95080.81
2022-10-30T18:26:55.446Z,95080.22
2022-10-30T18:29:22.170Z,95079.88
2022-10-30T18:31:48.860Z,95082.69
2022-10-30T18:34:20.607Z,95093.25
2022-10-30T18:36:48.782Z,95088.72
2022-10-30T18:39:15.789Z,95083.63
2022-10-30T18:41:45.701Z,95080.19
2022-10-30T18:44:18.679Z,95068.41
2022-10-30T18:46:45.980Z,95087.84
2022-10-30T18:49:12.997Z,95074.19
2022-10-30T18:51:40.188Z,95089.53
2022-10-30T18:54:16.904Z,95092.84
2022-10-30T18:56:43.893Z,95085.78
2022-10-30T18:59:11.778Z,95084.66
2022-10-30T19:01:38.948Z,95096.84
2022-10-30T19:04:11.969Z,95081.34
2022-10-30T19:06:39.141Z,95092.41
2022-10-30T19:09:06.367Z,95093.41
2022-10-30T19:11:33.805Z,95089.47
2022-10-30T19:14:00.696Z,95091.28
2022-10-30T19:16:28.002Z,95093.25
2022-10-30T19:18:54.783Z,95083.53
2022-10-30T19:21:28.188Z,95094.06
2022-10-30T19:23:56.363Z,95093.22
2022-10-30T19:26:23.154Z,95098.16
2022-10-30T19:28:49.866Z,95093.91
2022-10-30T19:31:18.866Z,95079.88
2022-10-30T19:33:48.171Z,95089.59
2022-10-30T19:36:30.037Z,95092.91
2022-10-30T19:38:57.108Z,95099.16
2022-10-30T19:41:25.004Z,95084.34
2022-10-30T19:43:53.311Z,95087.31
2022-10-30T19:46:21.156Z,95099.47
2022-10-30T19:48:57.148Z,95087.94
2022-10-30T19:51:24.787Z,95083.97
2022-10-30T19:53:53.820Z,95085.44
2022-10-30T19:56:21.265Z,95085.63
2022-10-30T19:58:48.232Z,95097.13
2022-10-30T20:01:15.395Z,95093.84
2022-10-30T20:03:42.291Z,95107.81
2022-10-30T20:06:12.483Z,95089.50
2022-10-30T20:08:39.568Z,95091.66
2022-10-30T20:11:06.339Z,95099.34
2022-10-30T20:13:33.771Z,95091.81
2022-10-30T20:16:05.661Z,95101.03
2022-10-30T20:18:35.189Z,95112.13
2022-10-30T20:21:10.084Z,95110.31
2022-10-30T20:23:37.483Z,95103.00
2022-10-30T20:26:24.644Z,95115.19
2022-10-30T20:28:52.037Z,95119.28
2022-10-30T20:31:18.924Z,95109.56
2022-10-30T20:33:45.654Z,95117.25
2022-10-30T20:36:14.468Z,95116.25
2022-10-30T20:38:41.295Z,95111.28
2022-10-30T20:41:22.016Z,95118.50
2022-10-30T20:43:50.225Z,95122.09
2022-10-30T20:46:18.394Z,95118.97
2022-10-30T20:48:45.145Z,95123.66
2022-10-30T20:51:12.532Z,95118.63
2022-10-30T20:53:39.388Z,95128.16
2022-10-30T20:56:06.955Z,95120.13
2022-10-30T20:58:33.689Z,95127.03
2022-10-30T21:01:00.806Z,95124.38
2022-10-30T21:03:27.735Z,95124.81
2022-10-30T21:06:00.646Z,95126.09
2022-10-30T21:08:31.589Z,95130.00
2022-10-30T21:11:06.719Z,95112.63
2022-10-30T21:13:34.779Z,95125.22
2022-10-30T21:16:05.504Z,95133.84
2022-10-30T21:18:32.546Z,95128.75
2022-10-30T21:21:08.127Z,95131.38
2022-10-30T21:23:35.115Z,95134.19
2022-10-30T21:26:07.425Z,95125.88
2022-10-30T21:28:34.422Z,95118.16
2022-10-30T21:31:03.022Z,95132.84
2022-10-30T21:33:34.423Z,95133.78
2022-10-30T21:36:12.948Z,95114.28
2022-10-30T21:38:42.267Z,95124.91
2022-10-30T21:41:14.370Z,95126.56
2022-10-30T21:43:41.582Z,95117.09
2022-10-30T21:46:11.986Z,95120.59
2022-10-30T21:48:40.072Z,95128.91
2022-10-30T21:51:12.460Z,95127.69
2022-10-30T21:53:39.860Z,95109.16
2022-10-30T21:56:12.920Z,95128.34
2022-10-30T21:58:39.721Z,95112.72
2022-10-30T22:01:07.163Z,95113.06
2022-10-30T22:03:34.251Z,95113.66
2022-10-30T22:06:06.899Z,95120.25
2022-10-30T22:08:33.986Z,95069.91
2022-10-30T22:11:09.282Z,95075.84
2022-10-30T22:13:37.530Z,95081.00
2022-10-30T22:16:07.264Z,95111.34
2022-10-30T22:18:35.030Z,95081.72
2022-10-30T22:21:06.429Z,95109.13
2022-10-30T22:23:35.418Z,95052.16
2022-10-30T22:26:06.044Z,95080.63
2022-10-30T22:28:34.835Z,95107.31
2022-10-30T22:31:13.024Z,95093.97
2022-10-30T22:33:40.502Z,95107.50
2022-10-30T22:36:14.104Z,95107.50
2022-10-30T22:38:41.059Z,95067.94
2022-10-30T22:41:27.122Z,95070.88
2022-10-30T22:43:58.783Z,95092.09
2022-10-30T22:46:29.013Z,95064.59
2022-10-30T22:48:57.427Z,95114.59
2022-10-30T22:51:25.486Z,95108.97
2022-10-30T22:53:58.939Z,95106.91
2022-10-30T22:56:30.228Z,95115.16
2022-10-30T22:58:57.690Z,95112.75
2022-10-30T23:01:28.249Z,95088.38
2022-10-30T23:03:57.934Z,95094.97
2022-10-30T23:06:25.758Z,95070.22
2022-10-30T23:08:54.283Z,95088.06
2022-10-30T23:11:21.512Z,95086.94
2022-10-30T23:13:48.705Z,95096.03
2022-10-30T23:16:18.767Z,95049.91
2022-10-30T23:18:46.320Z,95105.16
2022-10-30T23:21:19.893Z,95096.25
2022-10-30T23:23:47.506Z,95093.63
2022-10-30T23:26:18.806Z,95071.88
2022-10-30T23:28:46.939Z,95051.22
2022-10-30T23:31:24.239Z,95108.22
2022-10-30T23:33:53.765Z,95096.41
2022-10-30T23:36:23.427Z,95088.44
2022-10-30T23:38:55.247Z,95097.25
2022-10-30T23:41:24.740Z,95091.53
2022-10-30T23:44:02.261Z,95110.25
2022-10-30T23:46:29.422Z,95049.97
2022-10-30T23:48:56.299Z,95092.66
2022-10-30T23:51:24.004Z,95085.09
2022-10-30T23:53:51.615Z,95089.69
2022-10-30T23:56:18.970Z,95099.31
2022-10-30T23:58:47.665Z,95085.53
